Time;durP1;ratioP1;P1;durP2;ratioP2;P2;SDS_P1;SDS_P2;PMS_P1;PMS_P2;Temp;Humidity;BMP_temperature;BMP_pressure;BME280_temperature;BME280_humidity;BME280_pressure;Samples;Min_cycle;Max_cycle;Signal;HPM_P1;HPM_P2
2021/09/10 00:00:50;;;;;;;10.20;6.30;;;;;;;12.88;65.72;98814.89;233033;1205;24942;-74
2021/09/10 00:05:53;;;;;;;9.60;6.80;;;;;;;12.82;65.58;98813.41;232925;1209;22443;-75
2021/09/10 00:10:57;;;;;;;10.70;6.50;;;;;;;12.74;65.61;98808.60;232589;1205;24064;-74
2021/09/10 00:16:01;;;;;;;12.00;6.20;;;;;;;12.70;65.97;98809.22;233146;1205;24193;-74
2021/09/10 00:21:06;;;;;;;9.60;6.60;;;;;;;12.66;66.17;98809.12;233150;1205;24221;-74
2021/09/10 00:26:10;;;;;;;13.40;7.60;;;;;;;12.64;66.43;98820.77;233138;1205;24213;-75
2021/09/10 00:31:15;;;;;;;11.60;7.40;;;;;;;12.60;66.46;98824.98;232544;1205;24061;-74
2021/09/10 00:36:19;;;;;;;9.70;5.80;;;;;;;12.53;66.57;98826.14;232615;1205;22476;-73
2021/09/10 00:41:21;;;;;;;9.60;6.40;;;;;;;12.48;66.57;98826.41;232936;1206;25266;-74
2021/09/10 00:46:24;;;;;;;12.60;7.10;;;;;;;12.44;66.81;98820.52;233143;1196;22453;-75
2021/09/10 00:51:27;;;;;;;8.60;6.30;;;;;;;12.40;66.90;98820.67;232687;1205;22476;-74
2021/09/10 00:56:29;;;;;;;7.80;4.90;;;;;;;12.33;67.00;98824.40;232541;1206;25164;-75
2021/09/10 01:01:33;;;;;;;9.80;6.10;;;;;;;12.29;67.22;98828.54;233034;1209;24072;-73
2021/09/10 01:06:44;;;;;;;11.10;7.20;;;;;;;12.31;67.51;98829.39;233006;1205;22451;-76
2021/09/10 01:12:06;;;;;;;9.80;6.80;;;;;;;12.33;67.64;98833.87;233145;1203;24093;-73
2021/09/10 01:17:11;;;;;;;11.30;6.00;;;;;;;12.31;67.51;98832.98;233180;1205;25544;-72
2021/09/10 01:22:15;;;;;;;9.00;6.20;;;;;;;12.30;67.65;98834.23;233064;1204;24067;-73
2021/09/10 01:27:31;;;;;;;10.40;6.10;;;;;;;12.31;67.93;98837.16;232704;1203;25196;-73
2021/09/10 01:32:34;;;;;;;9.20;6.40;;;;;;;12.34;67.89;98836.30;232989;1204;24055;-73
2021/09/10 01:37:38;;;;;;;10.60;6.90;;;;;;;12.28;67.63;98836.05;233166;1206;22471;-73
2021/09/10 01:42:41;;;;;;;13.00;7.00;;;;;;;12.18;67.68;98834.09;233083;1205;25785;-73
2021/09/10 01:47:49;;;;;;;8.30;6.10;;;;;;;12.11;67.89;98833.48;232988;1205;22453;-74
2021/09/10 01:52:52;;;;;;;10.70;6.90;;;;;;;12.04;67.86;98836.31;232879;1209;25192;-74
2021/09/10 01:57:55;;;;;;;8.40;5.80;;;;;;;11.95;67.93;98839.48;232939;1205;24036;-74
2021/09/10 02:02:58;;;;;;;9.80;6.50;;;;;;;11.89;68.12;98834.67;232934;1209;24613;-74
2021/09/10 02:08:12;;;;;;;10.70;6.90;;;;;;;11.86;68.38;98825.55;232526;1208;22507;-74
2021/09/10 02:13:27;;;;;;;10.80;7.50;;;;;;;11.80;68.61;98829.56;232805;1207;25141;-74
2021/09/10 02:18:31;;;;;;;11.70;6.80;;;;;;;11.71;68.52;98833.11;232555;1209;24053;-73
2021/09/10 02:23:41;;;;;;;10.30;6.60;;;;;;;11.60;68.60;98828.39;232721;1205;25182;-75
2021/09/10 02:28:43;;;;;;;9.90;6.90;;;;;;;11.50;68.79;98831.84;232496;1205;24096;-75
2021/09/10 02:33:46;;;;;;;13.40;6.60;;;;;;;11.41;69.16;98831.48;232945;1197;25248;-74
2021/09/10 02:38:50;;;;;;;15.00;7.00;;;;;;;11.28;68.92;98837.16;232635;1205;24089;-74
2021/09/10 02:43:55;;;;;;;9.90;7.10;;;;;;;11.12;69.25;98841.02;233080;1198;24069;-73
2021/09/10 02:49:12;;;;;;;8.40;6.70;;;;;;;11.00;69.38;98838.89;233083;1204;22481;-74
2021/09/10 02:54:15;;;;;;;10.90;7.40;;;;;;;10.92;69.85;98837.39;232806;1203;24026;-74
2021/09/10 02:59:17;;;;;;;10.40;6.70;;;;;;;10.82;70.03;98832.76;232985;1204;24089;-75
2021/09/10 03:04:34;;;;;;;11.50;6.70;;;;;;;10.77;70.43;98831.27;232522;1205;22449;-74
2021/09/10 03:09:47;;;;;;;11.30;7.30;;;;;;;10.77;70.79;98828.21;232556;1206;22467;-75
2021/09/10 03:14:49;;;;;;;12.30;8.10;;;;;;;10.79;71.03;98830.75;232522;1205;24061;-74
2021/09/10 03:19:52;;;;;;;10.80;7.60;;;;;;;10.77;71.06;98832.13;232607;1205;24591;-73
2021/09/10 03:24:55;;;;;;;12.50;8.00;;;;;;;10.72;70.91;98830.79;232949;1205;24070;-73
2021/09/10 03:29:58;;;;;;;11.70;8.40;;;;;;;10.70;71.17;98838.59;232944;1206;25200;-74
2021/09/10 03:35:01;;;;;;;14.50;8.90;;;;;;;10.65;71.26;98831.42;232853;1205;24120;-74
2021/09/10 03:40:31;;;;;;;10.70;7.60;;;;;;;10.60;71.56;98821.30;232464;1201;24218;-75
2021/09/10 03:45:47;;;;;;;14.10;8.20;;;;;;;10.54;71.46;98822.18;232879;1204;22657;-74
2021/09/10 03:50:50;;;;;;;15.80;8.50;;;;;;;10.47;71.70;98822.42;232635;1205;24096;-75
2021/09/10 03:55:52;;;;;;;12.40;8.40;;;;;;;10.39;71.57;98820.91;232547;1207;26191;-75
2021/09/10 04:01:02;;;;;;;11.40;7.30;;;;;;;10.29;71.60;98815.41;232921;1204;24106;-72
2021/09/10 04:06:17;;;;;;;13.50;7.20;;;;;;;10.19;71.85;98821.30;232917;1205;22444;-74
2021/09/10 04:11:21;;;;;;;11.10;7.60;;;;;;;10.17;72.17;98823.15;232900;1204;24532;-75
2021/09/10 04:16:29;;;;;;;11.00;7.50;;;;;;;10.15;72.44;98820.77;232865;1205;24051;-74
2021/09/10 04:21:32;;;;;;;12.80;7.40;;;;;;;10.13;72.61;98819.98;233050;1204;24885;-74
2021/09/10 04:26:35;;;;;;;14.30;7.20;;;;;;;10.18;72.88;98821.44;232517;1206;24109;-74
2021/09/10 04:31:40;;;;;;;10.90;8.50;;;;;;;10.25;73.05;98824.20;232517;1205;24069;-74
2021/09/10 04:36:43;;;;;;;16.20;9.00;;;;;;;10.33;73.31;98825.23;232688;1204;22379;-72
2021/09/10 04:41:45;;;;;;;11.70;8.00;;;;;;;10.40;73.08;98825.55;232982;1204;24073;-73
2021/09/10 04:46:48;;;;;;;13.50;8.00;;;;;;;10.44;72.93;98824.83;232935;1204;24060;-73
2021/09/10 04:51:52;;;;;;;13.80;9.20;;;;;;;10.50;72.85;98829.73;233119;1204;23621;-74
2021/09/10 04:57:14;;;;;;;14.40;9.70;;;;;;;10.59;73.03;98833.05;232469;1206;22488;-74
2021/09/10 05:02:16;;;;;;;17.80;8.70;;;;;;;10.66;72.90;98836.98;233052;1204;25299;-73
2021/09/10 05:07:19;;;;;;;17.90;9.50;;;;;;;10.73;73.04;98837.98;232785;1204;25262;-74
2021/09/10 05:12:22;;;;;;;16.30;9.90;;;;;;;10.86;73.14;98843.10;232901;1205;24142;-73
2021/09/10 05:17:26;;;;;;;17.30;9.60;;;;;;;11.03;73.21;98843.15;232735;1205;24108;-74
2021/09/10 05:22:38;;;;;;;19.20;9.10;;;;;;;11.19;73.13;98843.13;232884;1204;22463;-74
2021/09/10 05:27:55;;;;;;;19.70;10.10;;;;;;;11.40;72.95;98839.49;232968;1198;25180;-75
2021/09/10 05:33:06;;;;;;;17.50;10.50;;;;;;;11.62;72.94;98839.47;232738;1200;24087;-74
2021/09/10 05:38:09;;;;;;;14.00;10.40;;;;;;;11.82;72.81;98841.40;232790;1206;24222;-74
2021/09/10 05:43:11;;;;;;;14.20;9.00;;;;;;;11.99;72.74;98839.30;232876;1205;22536;-74
2021/09/10 05:48:22;;;;;;;14.20;9.40;;;;;;;12.18;73.00;98842.19;233811;1204;25385;-74
2021/09/10 05:53:25;;;;;;;14.50;9.90;;;;;;;12.44;73.00;98844.98;233786;1204;22595;-75
2021/09/10 05:58:27;;;;;;;13.10;9.70;;;;;;;12.70;72.93;98848.65;233394;1205;25190;-76
2021/09/10 06:03:30;;;;;;;18.80;8.40;;;;;;;12.95;72.64;98845.89;233697;1198;25204;-75
2021/09/10 06:08:33;;;;;;;12.50;8.20;;;;;;;13.22;72.37;98853.25;233845;1197;25188;-75
2021/09/10 06:13:36;;;;;;;12.20;6.80;;;;;;;13.49;72.03;98855.95;233698;1204;25598;-74
2021/09/10 06:18:40;;;;;;;12.30;6.80;;;;;;;13.72;71.47;98858.02;233940;1204;22597;-76
2021/09/10 06:23:42;;;;;;;9.40;5.70;;;;;;;13.93;70.99;98855.73;233251;1205;22475;-77
2021/09/10 06:28:44;;;;;;;9.90;5.50;;;;;;;14.11;70.37;98856.40;233120;1205;22583;-77
2021/09/10 06:33:53;;;;;;;10.40;5.80;;;;;;;14.33;70.12;98861.05;233783;1204;22962;-77
2021/09/10 06:38:57;;;;;;;8.80;5.30;;;;;;;14.58;69.77;98863.73;233856;1204;22526;-77
2021/09/10 06:43:59;;;;;;;9.40;5.70;;;;;;;14.81;69.23;98872.52;233330;1206;25303;-75
2021/09/10 06:49:02;;;;;;;9.70;5.40;;;;;;;15.03;68.70;98873.24;233162;1205;22470;-75
2021/09/10 06:54:09;;;;;;;10.40;5.20;;;;;;;15.26;68.35;98877.11;233657;1204;25254;-76
2021/09/10 06:59:16;;;;;;;7.60;5.40;;;;;;;15.49;68.15;98879.05;233347;1204;22464;-75
2021/09/10 07:04:39;;;;;;;8.40;4.50;;;;;;;15.73;67.89;98884.38;233351;1199;25213;-78
2021/09/10 07:09:42;;;;;;;8.20;5.60;;;;;;;15.97;67.48;98885.75;233292;1204;25285;-76
2021/09/10 07:14:56;;;;;;;12.20;5.50;;;;;;;16.22;66.63;98884.13;233311;1204;25297;-76
2021/09/10 07:19:59;;;;;;;8.50;5.30;;;;;;;16.46;66.22;98887.10;233451;1204;24055;-76
2021/09/10 07:25:02;;;;;;;9.40;5.40;;;;;;;16.69;65.79;98880.82;233388;1206;24059;-76
2021/09/10 07:30:07;;;;;;;7.80;4.50;;;;;;;16.93;65.42;98881.05;234840;1204;24031;-76
2021/09/10 07:35:11;;;;;;;9.60;5.20;;;;;;;17.20;65.05;98881.06;233232;1205;24108;-75
2021/09/10 07:40:15;;;;;;;8.40;5.30;;;;;;;17.54;64.87;98881.07;233419;1205;24729;-74
2021/09/10 07:45:18;;;;;;;7.50;5.00;;;;;;;17.84;64.43;98885.32;233893;1204;22469;-76
2021/09/10 07:50:22;;;;;;;6.70;4.70;;;;;;;18.13;64.27;98890.59;233516;1204;24143;-76
2021/09/10 07:55:24;;;;;;;7.90;5.10;;;;;;;18.42;63.70;98896.25;233594;1204;22449;-75
2021/09/10 08:00:27;;;;;;;6.20;4.00;;;;;;;18.68;63.12;98901.50;233468;1204;24230;-77
2021/09/10 08:05:31;;;;;;;4.90;3.50;;;;;;;18.92;62.20;98904.05;233207;1206;25190;-77
2021/09/10 08:10:34;;;;;;;7.50;4.10;;;;;;;19.12;61.03;98906.28;233107;1205;22492;-75
2021/09/10 08:15:39;;;;;;;5.10;3.70;;;;;;;19.31;60.72;98906.79;233401;1205;24081;-77
2021/09/10 08:20:42;;;;;;;6.70;3.80;;;;;;;19.53;60.43;98906.02;233551;1204;22668;-77
2021/09/10 08:25:53;;;;;;;5.70;3.10;;;;;;;19.75;59.44;98905.00;233367;1205;22482;-74
2021/09/10 08:31:09;;;;;;;6.10;3.20;;;;;;;20.01;58.70;98901.13;233097;1200;24538;-75
2021/09/10 08:36:13;;;;;;;4.50;3.00;;;;;;;20.24;57.28;98897.34;233532;1204;25873;-77
2021/09/10 08:41:18;;;;;;;4.50;2.70;;;;;;;20.45;55.31;98893.90;233381;1206;24124;-76
2021/09/10 08:46:21;;;;;;;3.70;2.80;;;;;;;20.62;53.95;98893.00;233536;1204;25086;-73
2021/09/10 08:51:23;;;;;;;3.30;2.60;;;;;;;20.83;54.03;98899.48;233630;1205;22603;-75
2021/09/10 08:56:26;;;;;;;4.80;2.70;;;;;;;21.06;52.77;98901.23;233654;1197;22470;-75
2021/09/10 09:01:30;;;;;;;3.10;2.40;;;;;;;21.26;50.71;98897.63;233672;1204;22452;-76
2021/09/10 09:06:34;;;;;;;3.70;2.60;;;;;;;21.44;49.78;98898.46;233605;1204;24023;-74
2021/09/10 09:11:38;;;;;;;6.50;3.20;;;;;;;21.58;49.54;98898.33;233340;1205;22477;-75
2021/09/10 09:16:44;;;;;;;5.00;3.30;;;;;;;21.73;48.90;98895.02;233528;1205;22518;-76
2021/09/10 09:21:57;;;;;;;3.60;2.30;;;;;;;21.90;47.74;98892.08;233571;1204;22452;-74
2021/09/10 09:27:08;;;;;;;3.60;2.60;;;;;;;21.99;46.90;98886.79;233488;1202;22562;-74
2021/09/10 09:32:13;;;;;;;3.70;2.20;;;;;;;22.14;45.50;98884.85;233475;1204;22527;-75
2021/09/10 09:37:24;;;;;;;5.40;2.40;;;;;;;22.24;44.83;98882.07;233618;1204;22467;-76
2021/09/10 09:42:29;;;;;;;4.00;3.40;;;;;;;22.39;45.57;98878.45;233389;1205;22472;-75
2021/09/10 09:47:33;;;;;;;7.60;3.20;;;;;;;22.56;44.25;98877.46;233592;1204;22449;-76
2021/09/10 09:52:35;;;;;;;5.00;2.90;;;;;;;22.69;43.86;98875.00;233504;1204;22447;-75
2021/09/10 09:57:39;;;;;;;4.10;2.80;;;;;;;22.81;43.93;98881.42;233415;1205;22534;-75
2021/09/10 10:02:41;;;;;;;4.70;3.10;;;;;;;22.92;42.92;98880.88;233589;1200;25628;-76
2021/09/10 10:07:52;;;;;;;7.40;2.80;;;;;;;22.92;42.42;98881.50;233220;1204;24037;-75
2021/09/10 10:13:10;;;;;;;5.20;3.10;;;;;;;22.96;42.25;98870.24;233336;1198;25039;-75
2021/09/10 10:18:54;;;;;;;5.60;3.00;;;;;;;23.00;41.96;98874.98;233609;1204;24077;-75
2021/09/10 10:23:57;;;;;;;;;;;;;;;23.11;42.81;98871.48;233386;1204;22469;-76
2021/09/10 10:29:14;;;;;;;3.20;2.70;;;;;;;23.19;42.64;98872.92;233420;1204;22466;-75
2021/09/10 10:34:17;;;;;;;5.30;2.90;;;;;;;23.27;42.32;98870.21;233579;1204;22468;-77
2021/09/10 10:39:27;;;;;;;3.40;2.70;;;;;;;23.38;41.77;98875.96;233261;1205;22456;-75
2021/09/10 10:44:33;;;;;;;4.50;3.10;;;;;;;23.50;42.17;98876.10;233415;1204;22481;-74
2021/09/10 10:49:39;;;;;;;4.20;3.10;;;;;;;23.64;42.81;98865.33;233640;1205;22552;-74
2021/09/10 10:54:41;;;;;;;8.10;3.80;;;;;;;23.81;41.74;98869.49;233424;1204;22455;-75
2021/09/10 10:59:48;;;;;;;6.90;3.40;;;;;;;23.94;41.41;98862.92;233288;1204;25082;-75
2021/09/10 11:05:18;;;;;;;6.50;2.80;;;;;;;24.04;41.45;98854.89;233688;1198;22695;-77
2021/09/10 11:10:21;;;;;;;3.50;2.70;;;;;;;24.17;40.61;98852.83;233433;1204;24097;-75
2021/09/10 11:15:34;;;;;;;2.90;2.60;;;;;;;24.26;39.32;98852.67;233224;1204;24090;-75
2021/09/10 11:20:49;;;;;;;2.80;2.40;;;;;;;24.31;38.85;98848.08;233352;1198;22464;-74
2021/09/10 11:25:56;;;;;;;4.60;2.90;;;;;;;24.42;38.84;98842.22;233354;1204;22535;-75
2021/09/10 11:31:01;;;;;;;3.60;2.50;;;;;;;24.50;37.06;98840.65;233251;1207;24057;-75
2021/09/10 11:36:04;;;;;;;4.60;2.90;;;;;;;24.57;37.63;98837.41;233281;1199;22545;-75
2021/09/10 11:41:07;;;;;;;4.30;3.40;;;;;;;24.74;38.59;98837.31;233183;1204;24066;-73
2021/09/10 11:46:11;;;;;;;7.80;5.40;;;;;;;24.82;38.38;98822.80;233177;1204;24064;-75
2021/09/10 11:51:36;;;;;;;7.60;6.70;;;;;;;24.84;38.73;98815.91;233304;1198;24047;-75
2021/09/10 11:56:40;;;;;;;6.50;4.30;;;;;;;24.91;38.53;98811.41;232970;1204;22454;-73
2021/09/10 12:01:45;;;;;;;4.60;3.00;;;;;;;24.97;37.23;98806.27;233279;1204;22496;-73
2021/09/10 12:06:52;;;;;;;6.30;3.00;;;;;;;24.97;38.27;98802.52;233094;1207;22683;-75
2021/09/10 12:12:06;;;;;;;5.70;2.70;;;;;;;25.06;38.03;98801.30;233077;1205;24062;-76
2021/09/10 12:17:12;;;;;;;3.80;3.10;;;;;;;25.08;37.12;98796.14;233182;1205;26513;-75
2021/09/10 12:22:41;;;;;;;5.30;4.10;;;;;;;25.04;36.23;98797.55;233074;1206;22482;-75
2021/09/10 12:27:45;;;;;;;3.40;2.90;;;;;;;25.06;36.30;98795.52;233054;1207;23111;-76
2021/09/10 12:32:48;;;;;;;3.70;3.30;;;;;;;25.12;35.43;98792.95;233385;1204;24065;-77
2021/09/10 12:37:59;;;;;;;5.40;3.30;;;;;;;25.10;34.38;98793.80;233513;1204;25092;-76
2021/09/10 12:43:05;;;;;;;3.50;3.20;;;;;;;25.07;34.80;98785.89;232984;1205;24077;-73
2021/09/10 12:48:22;;;;;;;2.90;2.70;;;;;;;25.13;34.41;98782.84;233293;1205;27667;-72
2021/09/10 12:53:45;;;;;;;3.30;2.60;;;;;;;25.16;34.81;98783.58;233286;1198;24082;-75
2021/09/10 12:58:47;;;;;;;3.40;2.70;;;;;;;25.23;35.18;98781.80;233284;1205;25216;-75
2021/09/10 13:03:50;;;;;;;4.90;2.80;;;;;;;25.29;34.77;98778.75;233496;1205;24116;-77
2021/09/10 13:08:54;;;;;;;9.60;3.40;;;;;;;25.28;34.76;98777.41;233372;1204;24058;-76
2021/09/10 13:13:58;;;;;;;3.70;2.70;;;;;;;25.22;33.41;98777.33;233438;1204;24070;-77
2021/09/10 13:19:03;;;;;;;5.00;3.40;;;;;;;25.20;34.37;98777.30;233444;1205;22511;-76
2021/09/10 13:24:08;;;;;;;4.60;3.20;;;;;;;25.20;33.69;98778.26;233106;1205;24033;-76
2021/09/10 13:29:10;;;;;;;3.80;2.90;;;;;;;25.16;33.24;98772.20;233135;1205;24033;-76
2021/09/10 13:34:13;;;;;;;4.30;2.80;;;;;;;25.16;33.98;98765.31;233465;1205;24664;-79
2021/09/10 13:39:19;;;;;;;4.60;2.60;;;;;;;25.16;34.07;98761.17;233313;1204;22600;-81
2021/09/10 13:44:23;;;;;;;4.30;3.40;;;;;;;25.18;34.48;98760.47;233351;1205;24702;-76
2021/09/10 13:49:32;;;;;;;3.80;2.50;;;;;;;25.26;35.09;98760.56;233114;1205;22468;-75
2021/09/10 13:54:44;;;;;;;3.90;3.50;;;;;;;25.27;34.64;98753.91;233349;1208;26245;-75
2021/09/10 14:00:01;;;;;;;5.20;3.80;;;;;;;25.25;33.71;98757.20;233168;1203;22472;-77
2021/09/10 14:05:13;;;;;;;4.00;3.20;;;;;;;25.27;34.08;98754.63;233843;1205;22472;-76
2021/09/10 14:10:17;;;;;;;12.40;4.90;;;;;;;25.26;34.00;98754.21;234091;1204;24103;-73
2021/09/10 14:15:20;;;;;;;3.80;3.10;;;;;;;25.27;34.53;98758.06;233536;1205;22459;-75
2021/09/10 14:20:23;;;;;;;4.70;3.10;;;;;;;25.31;34.29;98755.89;233103;1205;24671;-76
2021/09/10 14:25:26;;;;;;;7.20;3.80;;;;;;;25.24;33.93;98750.08;232723;1208;25290;-78
2021/09/10 14:30:29;;;;;;;4.70;3.10;;;;;;;25.18;34.13;98750.98;232834;1212;22534;-75
2021/09/10 14:35:31;;;;;;;5.70;3.80;;;;;;;25.07;34.08;98750.10;232641;1205;24158;-76
2021/09/10 14:40:35;;;;;;;5.80;4.20;;;;;;;24.98;34.15;98749.67;233023;1205;24087;-76
2021/09/10 14:45:38;;;;;;;5.20;3.30;;;;;;;24.92;34.71;98748.48;232688;1204;22483;-75
2021/09/10 14:50:40;;;;;;;10.00;4.00;;;;;;;24.90;34.28;98749.56;233008;1205;24146;-75
2021/09/10 14:55:42;;;;;;;3.50;3.00;;;;;;;24.85;34.58;98749.63;233021;1198;22451;-77
2021/09/10 15:00:45;;;;;;;2.90;2.50;;;;;;;24.79;34.91;98758.91;232784;1205;24120;-73
2021/09/10 15:05:54;;;;;;;4.60;3.50;;;;;;;24.74;34.83;98763.90;232920;1205;24070;-76
2021/09/10 15:11:01;;;;;;;4.40;2.60;;;;;;;24.67;34.93;98763.09;232965;1205;24075;-75
2021/09/10 15:16:06;;;;;;;3.80;3.40;;;;;;;24.62;35.29;98761.02;233119;1206;22522;-75
2021/09/10 15:21:09;;;;;;;3.70;3.10;;;;;;;24.58;35.32;98753.54;233037;1209;22527;-75
2021/09/10 15:26:12;;;;;;;4.30;2.80;;;;;;;24.51;35.45;98750.23;233021;1205;24057;-76
2021/09/10 15:31:14;;;;;;;4.00;3.60;;;;;;;24.44;35.76;98752.29;232841;1208;25179;-74
2021/09/10 15:36:25;;;;;;;9.10;7.30;;;;;;;24.35;35.41;98749.04;233212;1205;24237;-75
2021/09/10 15:41:44;;;;;;;5.20;4.50;;;;;;;24.22;35.56;98744.80;232954;1209;22565;-75
2021/09/10 15:46:47;;;;;;;8.90;5.40;;;;;;;24.11;36.06;98745.50;233163;1208;24123;-74
2021/09/10 15:51:50;;;;;;;5.20;4.00;;;;;;;24.00;35.99;98742.37;232758;1205;22523;-73
2021/09/10 15:57:06;;;;;;;8.80;5.90;;;;;;;23.84;36.10;98740.67;233199;1204;22487;-76
2021/09/10 16:02:11;;;;;;;6.80;5.80;;;;;;;23.64;36.79;98739.79;232940;1209;25106;-77
2021/09/10 16:07:14;;;;;;;9.10;5.60;;;;;;;23.43;37.11;98730.54;232764;1205;22464;-76
2021/09/10 16:12:30;;;;;;;9.20;5.30;;;;;;;23.22;37.74;98730.32;232768;1209;24112;-76
2021/09/10 16:17:35;;;;;;;6.20;3.90;;;;;;;22.98;38.17;98730.04;232863;1209;25197;-76
2021/09/10 16:22:38;;;;;;;7.90;4.50;;;;;;;22.74;38.80;98730.20;232765;1205;22469;-75
2021/09/10 16:27:41;;;;;;;9.10;4.20;;;;;;;22.50;39.13;98730.77;232714;1205;25058;-74
2021/09/10 16:32:45;;;;;;;6.10;4.40;;;;;;;22.28;39.52;98729.11;232812;1209;25223;-75
2021/09/10 16:37:49;;;;;;;8.10;5.90;;;;;;;22.08;39.96;98728.42;232744;1208;25235;-75
2021/09/10 16:42:52;;;;;;;8.70;6.30;;;;;;;21.85;40.50;98731.19;232731;1205;22495;-75
2021/09/10 16:47:54;;;;;;;5.90;4.50;;;;;;;21.63;40.87;98732.77;232692;1198;24056;-75
2021/09/10 16:52:57;;;;;;;6.90;4.50;;;;;;;21.37;41.27;98733.77;232886;1205;24075;-75
2021/09/10 16:58:07;;;;;;;6.90;5.20;;;;;;;21.11;41.79;98738.48;232688;1209;22383;-76
2021/09/10 17:03:09;;;;;;;7.40;4.50;;;;;;;20.84;42.21;98740.30;232863;1203;22490;-76
2021/09/10 17:08:26;;;;;;;7.50;3.10;;;;;;;20.57;42.62;98744.07;232638;1209;24085;-75
2021/09/10 17:13:46;;;;;;;7.50;4.50;;;;;;;20.29;43.29;98742.51;232884;1208;26445;-75
2021/09/10 17:18:50;;;;;;;11.30;7.90;;;;;;;20.01;43.91;98745.51;233278;1205;24141;-76
2021/09/10 17:23:53;;;;;;;8.20;4.90;;;;;;;19.73;44.23;98749.66;232743;1206;24075;-75
2021/09/10 17:29:02;;;;;;;7.20;4.00;;;;;;;19.48;44.89;98755.11;233108;1212;25141;-76
2021/09/10 17:34:05;;;;;;;6.80;3.90;;;;;;;19.23;45.34;98763.64;233185;1205;24056;-76
2021/09/10 17:39:09;;;;;;;8.90;4.50;;;;;;;19.00;45.91;98767.29;233358;1205;24835;-76
2021/09/10 17:44:12;;;;;;;5.60;3.80;;;;;;;18.80;46.27;98771.16;233204;1199;22569;-76
2021/09/10 17:49:15;;;;;;;6.70;4.50;;;;;;;18.61;46.67;98773.21;233010;1208;22449;-74
2021/09/10 17:54:18;;;;;;;5.80;4.40;;;;;;;18.43;47.00;98770.38;233126;1204;24052;-76
2021/09/10 17:59:20;;;;;;;3.80;3.20;;;;;;;18.27;47.28;98776.56;233199;1203;25200;-76
2021/09/10 18:04:23;;;;;;;4.80;3.50;;;;;;;18.13;47.63;98782.23;232920;1203;25217;-76
2021/09/10 18:09:28;;;;;;;5.30;3.10;;;;;;;18.00;47.96;98785.67;233065;1205;24110;-77
2021/09/10 18:14:30;;;;;;;5.80;4.10;;;;;;;17.87;48.20;98783.52;233110;1209;26245;-80
2021/09/10 18:19:51;;;;;;;6.90;3.80;;;;;;;17.74;48.64;98782.46;232955;1205;22450;-79
2021/09/10 18:24:53;;;;;;;7.70;3.80;;;;;;;17.62;48.90;98788.17;233035;1205;24079;-77
2021/09/10 18:30:03;;;;;;;7.00;4.40;;;;;;;17.50;49.35;98792.05;232570;1205;25859;-76
2021/09/10 18:35:06;;;;;;;;;;;;;;;17.38;49.63;98793.80;232688;1205;22425;-78
2021/09/10 18:40:11;;;;;;;5.90;4.30;;;;;;;17.24;49.98;98798.86;232663;1204;22572;-75
2021/09/10 18:45:15;;;;;;;9.00;5.00;;;;;;;17.08;50.31;98799.75;232819;1205;22525;-76
2021/09/10 18:50:18;;;;;;;10.20;6.30;;;;;;;16.91;50.61;98798.27;232617;1205;25080;-76
2021/09/10 18:55:21;;;;;;;9.00;6.00;;;;;;;16.75;51.07;98801.77;233206;1205;24109;-75
2021/09/10 19:00:24;;;;;;;10.40;6.80;;;;;;;16.61;51.56;98804.16;232675;1206;24122;-76
2021/09/10 19:05:27;;;;;;;10.40;7.00;;;;;;;16.46;51.92;98799.43;233378;1205;24514;-73
2021/09/10 19:10:30;;;;;;;11.60;7.10;;;;;;;16.32;52.28;98795.24;233428;1205;22482;-76
2021/09/10 19:15:36;;;;;;;9.90;6.40;;;;;;;16.19;52.66;98797.12;233208;1204;24983;-75
2021/09/10 19:21:01;;;;;;;9.30;6.10;;;;;;;16.06;53.06;98797.36;232985;1204;24063;-77
2021/09/10 19:26:03;;;;;;;10.70;6.60;;;;;;;15.96;53.41;98792.86;233849;1207;24067;-74
2021/09/10 19:31:08;;;;;;;13.20;7.40;;;;;;;15.85;53.88;98794.70;233021;1204;24077;-73
2021/09/10 19:36:13;;;;;;;12.10;7.50;;;;;;;15.75;54.50;98793.21;232476;1205;25043;-75
2021/09/10 19:41:16;;;;;;;13.00;7.80;;;;;;;15.69;54.98;98792.14;232977;1204;24048;-74
2021/09/10 19:46:20;;;;;;;13.40;7.60;;;;;;;15.66;55.40;98792.34;232582;1208;24145;-76
2021/09/10 19:51:23;;;;;;;11.90;7.60;;;;;;;15.64;55.65;98793.17;233045;1201;22453;-76
2021/09/10 19:56:26;;;;;;;11.50;7.50;;;;;;;15.62;55.92;98792.45;233001;1205;25221;-76
2021/09/10 20:01:28;;;;;;;14.30;8.20;;;;;;;15.60;56.07;98789.72;232992;1204;24068;-76
2021/09/10 20:06:33;;;;;;;13.00;7.60;;;;;;;15.54;56.26;98784.70;233063;1198;22472;-76
2021/09/10 20:11:37;;;;;;;10.20;6.90;;;;;;;15.47;56.45;98789.11;232993;1204;22637;-74
2021/09/10 20:16:45;;;;;;;12.40;7.00;;;;;;;15.39;56.71;98792.71;233181;1204;24212;-73
2021/09/10 20:21:47;;;;;;;11.70;7.40;;;;;;;15.36;57.06;98792.64;232689;1207;24066;-75
2021/09/10 20:26:49;;;;;;;14.20;7.90;;;;;;;15.36;57.48;98795.83;232795;1204;24150;-76
2021/09/10 20:31:52;;;;;;;15.20;8.70;;;;;;;15.37;57.61;98793.47;233034;1204;25384;-75
2021/09/10 20:36:56;;;;;;;14.70;8.40;;;;;;;15.36;57.59;98794.63;232541;1205;24018;-75
2021/09/10 20:42:09;;;;;;;10.70;7.60;;;;;;;15.33;57.81;98796.24;232703;1207;22456;-76
2021/09/10 20:47:13;;;;;;;14.80;8.30;;;;;;;15.27;57.82;98793.42;232783;1207;22465;-76
2021/09/10 20:52:28;;;;;;;12.80;7.80;;;;;;;15.19;58.04;98799.43;232670;1205;24198;-76
2021/09/10 20:57:45;;;;;;;13.20;7.50;;;;;;;15.11;58.27;98798.89;232688;1205;24077;-76
2021/09/10 21:02:57;;;;;;;12.50;8.10;;;;;;;15.05;58.46;98800.41;232786;1205;24063;-73
2021/09/10 21:08:09;;;;;;;13.60;8.30;;;;;;;15.03;58.83;98800.79;232790;1205;24074;-76
2021/09/10 21:13:11;;;;;;;15.70;8.30;;;;;;;15.01;59.14;98800.85;232756;1198;22849;-76
2021/09/10 21:18:16;;;;;;;13.40;8.50;;;;;;;14.97;59.27;98804.15;232945;1204;24237;-73
2021/09/10 21:23:19;;;;;;;12.70;8.20;;;;;;;14.91;59.45;98806.59;233005;1204;24064;-75
2021/09/10 21:28:21;;;;;;;12.10;7.10;;;;;;;14.85;59.32;98811.41;232891;1205;24070;-75
2021/09/10 21:33:25;;;;;;;14.40;8.30;;;;;;;14.81;59.79;98807.54;232968;1204;24169;-76
2021/09/10 21:38:28;;;;;;;12.80;8.00;;;;;;;14.80;60.01;98810.01;232716;1205;24273;-75
2021/09/10 21:43:30;;;;;;;16.00;8.10;;;;;;;14.78;60.19;98808.61;232998;1197;24262;-75
2021/09/10 21:48:33;;;;;;;10.30;7.90;;;;;;;14.74;60.30;98808.25;232487;1204;24747;-75
2021/09/10 21:53:36;;;;;;;12.70;7.70;;;;;;;14.67;60.44;98809.95;232559;1206;26829;-75
2021/09/10 21:58:39;;;;;;;12.50;6.70;;;;;;;14.59;60.55;98811.63;232789;1204;24157;-75
2021/09/10 22:03:42;;;;;;;12.80;7.30;;;;;;;14.51;60.64;98811.19;232709;1204;25164;-76
2021/09/10 22:08:45;;;;;;;12.80;7.90;;;;;;;14.46;60.93;98809.24;232605;1200;24614;-75
2021/09/10 22:13:49;;;;;;;12.10;7.60;;;;;;;14.42;61.17;98811.89;232773;1207;24224;-76
2021/09/10 22:18:54;;;;;;;13.50;8.10;;;;;;;14.36;61.35;98810.64;232546;1205;24096;-75
2021/09/10 22:23:57;;;;;;;11.80;7.60;;;;;;;14.29;61.53;98814.06;232745;1204;22448;-75
2021/09/10 22:29:00;;;;;;;9.10;6.80;;;;;;;14.19;61.75;98815.46;232807;1204;22477;-82
2021/09/10 22:34:02;;;;;;;13.70;6.90;;;;;;;14.11;61.99;98819.71;232726;1204;24039;-75
2021/09/10 22:39:10;;;;;;;14.60;8.20;;;;;;;14.06;62.34;98813.35;232597;1204;25354;-75
2021/09/10 22:44:20;;;;;;;12.50;8.10;;;;;;;14.02;62.59;98811.08;232714;1206;25039;-75
2021/09/10 22:49:30;;;;;;;13.50;8.30;;;;;;;13.97;62.78;98812.39;232506;1205;24096;-76
2021/09/10 22:54:34;;;;;;;11.90;7.00;;;;;;;13.91;62.95;98808.71;232882;1204;24080;-74
2021/09/10 22:59:36;;;;;;;12.10;7.50;;;;;;;13.85;63.09;98809.82;232620;1204;24217;-75
2021/09/10 23:04:39;;;;;;;12.60;8.00;;;;;;;13.80;63.33;98809.39;232744;1204;25452;-76
2021/09/10 23:09:54;;;;;;;13.00;7.80;;;;;;;13.73;63.48;98816.02;232640;1197;22409;-73
2021/09/10 23:15:19;;;;;;;11.20;7.50;;;;;;;13.63;63.72;98819.93;232743;1204;22490;-73
2021/09/10 23:20:22;;;;;;;9.40;6.50;;;;;;;13.53;64.02;98822.69;232522;1205;25219;-74
2021/09/10 23:25:24;;;;;;;14.60;7.70;;;;;;;13.47;64.26;98817.30;232800;1204;22509;-75
2021/09/10 23:30:31;;;;;;;11.20;7.60;;;;;;;13.46;64.62;98815.23;232783;1204;24108;-75
2021/09/10 23:35:34;;;;;;;12.00;7.10;;;;;;;13.46;64.81;98815.23;232694;1204;24160;-75